Time;durP1;ratioP1;P1;durP2;ratioP2;P2;SDS_P1;SDS_P2;PMS_P1;PMS_P2;Temp;Humidity;BMP_temperature;BMP_pressure;BME280_temperature;BME280_humidity;BME280_pressure;Samples;Min_cycle;Max_cycle;Signal;HPM_P1;HPM_P2
2021/06/23 00:02:19;;;;;;;36.87;32.67;;;13.40;99.90;;;;;;4998232;28;20476;-62
2021/06/23 00:04:47;;;;;;;36.17;32.60;;;13.40;99.90;;;;;;4990340;28;20480;-62
2021/06/23 00:07:14;;;;;;;34.53;30.77;;;13.40;99.90;;;;;;4998862;28;20440;-62
2021/06/23 00:09:42;;;;;;;31.87;28.97;;;13.30;99.90;;;;;;4999532;28;20435;-62
2021/06/23 00:12:16;;;;;;;34.17;30.83;;;13.30;99.90;;;;;;4999620;28;20447;-62
2021/06/23 00:14:44;;;;;;;32.57;29.20;;;13.40;99.90;;;;;;4999886;28;20547;-62
2021/06/23 00:17:11;;;;;;;34.03;30.50;;;13.50;99.90;;;;;;4999788;28;20436;-62
2021/06/23 00:19:38;;;;;;;34.00;30.23;;;13.50;99.90;;;;;;4998162;28;20840;-62
2021/06/23 00:22:05;;;;;;;36.33;32.73;;;13.40;99.90;;;;;;4999208;28;20484;-62
2021/06/23 00:24:33;;;;;;;35.10;31.73;;;13.40;99.90;;;;;;4998437;28;20472;-62
2021/06/23 00:27:01;;;;;;;38.07;33.60;;;13.40;99.90;;;;;;5000147;28;20490;-62
2021/06/23 00:29:31;;;;;;;37.87;34.20;;;13.40;99.90;;;;;;4997522;28;20473;-62
2021/06/23 00:31:59;;;;;;;37.50;33.47;;;13.40;99.90;;;;;;4999271;28;20757;-62
2021/06/23 00:34:27;;;;;;;37.77;34.00;;;13.40;99.90;;;;;;4998159;28;20477;-62
2021/06/23 00:36:54;;;;;;;40.93;34.97;;;13.40;99.90;;;;;;4998534;28;20477;-62
2021/06/23 00:39:22;;;;;;;37.97;34.00;;;13.40;99.90;;;;;;4999264;28;20941;-62
2021/06/23 00:41:49;;;;;;;37.90;34.00;;;13.40;99.90;;;;;;4998410;28;20894;-62
2021/06/23 00:44:19;;;;;;;36.43;32.50;;;13.50;99.90;;;;;;4998636;28;20508;-62
2021/06/23 00:46:46;;;;;;;39.00;31.63;;;13.30;99.90;;;;;;4995189;28;20465;-62
2021/06/23 00:49:13;;;;;;;32.20;29.20;;;13.30;99.90;;;;;;4998811;28;20910;-62
2021/06/23 00:51:40;;;;;;;33.50;30.30;;;13.30;99.90;;;;;;4999062;28;20475;-62
2021/06/23 00:54:11;;;;;;;32.40;29.20;;;13.30;99.90;;;;;;4997751;28;20901;-62
2021/06/23 00:56:39;;;;;;;29.87;27.00;;;13.40;99.90;;;;;;4999012;28;20611;-62
2021/06/23 00:59:08;;;;;;;29.63;26.53;;;13.40;99.90;;;;;;4998721;28;20985;-62
2021/06/23 01:01:40;;;;;;;30.00;27.03;;;13.30;99.90;;;;;;4998764;28;20498;-62
2021/06/23 01:04:07;;;;;;;31.63;26.93;;;13.30;99.90;;;;;;4998146;28;20443;-62
2021/06/23 01:06:35;;;;;;;28.93;26.23;;;13.30;99.90;;;;;;4986069;28;20489;-62
2021/06/23 01:09:04;;;;;;;28.10;25.13;;;13.20;99.90;;;;;;4996709;28;20491;-62
2021/06/23 01:11:32;;;;;;;30.43;27.50;;;13.20;99.90;;;;;;4995320;28;20473;-62
2021/06/23 01:14:02;;;;;;;28.57;25.93;;;13.20;99.90;;;;;;4998677;28;20504;-62
2021/06/23 01:16:31;;;;;;;29.07;25.60;;;13.20;99.90;;;;;;4998440;28;20467;-62
2021/06/23 01:19:01;;;;;;;28.13;25.40;;;13.20;99.90;;;;;;4998018;28;20476;-62
2021/06/23 01:21:29;;;;;;;28.13;24.77;;;13.20;99.90;;;;;;4998804;28;20792;-62
2021/06/23 01:23:57;;;;;;;28.20;24.50;;;13.10;99.90;;;;;;4997640;28;20440;-62
2021/06/23 01:26:24;;;;;;;27.50;24.87;;;13.20;99.90;;;;;;4998532;28;20475;-62
2021/06/23 01:28:51;;;;;;;25.37;22.70;;;13.20;99.90;;;;;;4997500;28;20446;-62
2021/06/23 01:31:20;;;;;;;25.33;22.87;;;13.10;99.90;;;;;;4998575;28;20461;-62
2021/06/23 01:33:47;;;;;;;25.93;23.53;;;13.10;99.90;;;;;;4998053;28;20536;-62
2021/06/23 01:36:14;;;;;;;27.63;24.33;;;13.20;99.90;;;;;;4997605;28;20443;-62
2021/06/23 01:38:42;;;;;;;24.87;22.23;;;13.20;99.90;;;;;;4993133;28;20502;-62
2021/06/23 01:41:10;;;;;;;26.63;24.13;;;13.20;99.90;;;;;;4996700;28;20464;-62
2021/06/23 01:43:37;;;;;;;25.47;22.77;;;13.20;99.90;;;;;;4997741;28;20507;-62
2021/06/23 01:46:04;;;;;;;25.50;23.10;;;13.10;99.90;;;;;;4996591;28;20469;-61
2021/06/23 01:48:31;;;;;;;23.40;21.20;;;13.10;99.90;;;;;;4993094;28;20793;-61
2021/06/23 01:51:00;;;;;;;27.30;24.40;;;13.10;99.90;;;;;;4997965;28;20474;-62
2021/06/23 01:53:29;;;;;;;25.97;23.00;;;13.10;99.90;;;;;;4997255;28;20473;-62
2021/06/23 01:55:56;;;;;;;26.70;22.97;;;13.10;99.90;;;;;;4998104;28;20880;-62
2021/06/23 01:58:25;;;;;;;25.80;23.00;;;13.20;99.90;;;;;;4997099;28;20469;-62
2021/06/23 02:01:03;;;;;;;25.13;22.93;;;13.20;99.90;;;;;;4998285;28;20463;-62
2021/06/23 02:03:47;;;;;;;23.53;21.53;;;13.20;99.90;;;;;;4990710;28;20523;-61
2021/06/23 02:06:43;;;;;;;25.20;22.50;;;13.20;99.90;;;;;;4994414;28;20450;-61
2021/06/23 02:09:23;;;;;;;26.27;23.43;;;13.20;99.90;;;;;;4997696;28;20924;-62
2021/06/23 02:11:55;;;;;;;26.03;21.80;;;13.10;99.90;;;;;;4997453;28;20487;-62
2021/06/23 02:14:42;;;;;;;24.50;22.20;;;13.10;99.90;;;;;;4997211;28;20442;-61
2021/06/23 02:17:11;;;;;;;22.43;20.00;;;13.20;99.90;;;;;;4993386;28;20563;-62
2021/06/23 02:19:43;;;;;;;24.80;21.10;;;13.10;99.90;;;;;;4997473;28;20841;-62
2021/06/23 02:22:13;;;;;;;23.80;21.40;;;13.00;99.90;;;;;;4996490;28;20480;-61
2021/06/23 02:24:40;;;;;;;23.17;20.90;;;13.00;99.90;;;;;;4997100;28;20468;-61
2021/06/23 02:27:08;;;;;;;25.60;22.70;;;13.00;99.90;;;;;;4996457;28;20532;-61
2021/06/23 02:29:36;;;;;;;21.63;19.43;;;13.00;99.90;;;;;;4997252;28;20454;-61
2021/06/23 02:32:07;;;;;;;24.63;21.80;;;13.10;99.90;;;;;;4996905;28;20447;-61
2021/06/23 02:34:34;;;;;;;22.77;20.50;;;13.10;99.90;;;;;;4997015;28;20795;-61
2021/06/23 02:37:02;;;;;;;23.97;21.77;;;13.10;99.90;;;;;;4997176;28;20469;-62
2021/06/23 02:39:29;;;;;;;24.33;21.83;;;13.00;99.90;;;;;;4996234;28;20952;-61
2021/06/23 02:41:56;;;;;;;26.43;22.57;;;13.00;99.90;;;;;;4997004;28;20465;-61
2021/06/23 02:44:25;;;;;;;23.10;20.77;;;13.00;99.90;;;;;;4997264;28;20493;-61
2021/06/23 02:46:52;;;;;;;24.17;21.77;;;13.10;99.90;;;;;;4997428;28;20463;-61
2021/06/23 02:49:21;;;;;;;23.77;21.40;;;13.00;99.90;;;;;;4997214;28;20947;-61
2021/06/23 02:51:49;;;;;;;25.60;21.93;;;13.00;99.90;;;;;;4996432;28;20508;-61
2021/06/23 02:54:16;;;;;;;21.67;19.53;;;13.00;99.90;;;;;;4996424;28;20476;-61
2021/06/23 02:56:44;;;;;;;24.97;21.10;;;13.00;99.90;;;;;;4996702;28;20465;-62
2021/06/23 02:59:14;;;;;;;20.67;18.67;;;13.00;99.90;;;;;;4996266;28;20734;-62
2021/06/23 03:01:42;;;;;;;24.47;20.27;;;13.00;99.90;;;;;;4996775;28;20555;-62
2021/06/23 03:04:09;;;;;;;23.37;21.17;;;13.00;99.90;;;;;;4986227;28;20477;-62
2021/06/23 03:06:40;;;;;;;23.67;21.17;;;13.00;99.90;;;;;;4996044;28;20464;-62
2021/06/23 03:09:07;;;;;;;23.30;21.07;;;13.00;99.90;;;;;;4995706;28;20529;-62
2021/06/23 03:11:35;;;;;;;22.07;19.90;;;13.00;99.90;;;;;;4997092;28;20832;-62
2021/06/23 03:14:02;;;;;;;26.57;21.33;;;12.90;99.90;;;;;;4995473;28;20877;-62
2021/06/23 03:16:30;;;;;;;25.10;21.30;;;12.90;99.90;;;;;;4995285;28;20773;-62
2021/06/23 03:18:57;;;;;;;22.43;18.93;;;13.00;99.90;;;;;;4997314;28;20475;-62
2021/06/23 03:21:24;;;;;;;24.67;21.40;;;13.10;99.90;;;;;;4995548;28;20532;-62
2021/06/23 03:23:56;;;;;;;23.60;20.50;;;13.00;99.90;;;;;;4995275;28;20652;-62
2021/06/23 03:26:24;;;;;;;24.80;21.13;;;13.00;99.90;;;;;;4995906;28;20924;-62
2021/06/23 03:28:51;;;;;;;23.70;20.20;;;13.00;99.90;;;;;;4994983;28;20492;-62
2021/06/23 03:31:18;;;;;;;21.47;19.17;;;13.00;99.90;;;;;;4995972;28;20465;-62
2021/06/23 03:33:45;;;;;;;22.63;20.47;;;13.00;99.90;;;;;;4999542;28;20473;-62
2021/06/23 03:36:12;;;;;;;23.77;21.47;;;12.90;99.90;;;;;;4999755;28;20469;-62
2021/06/23 03:38:39;;;;;;;23.23;20.80;;;13.00;99.90;;;;;;5000320;28;20523;-62
2021/06/23 03:41:10;;;;;;;23.47;21.03;;;13.00;99.90;;;;;;5000842;28;20492;-62
2021/06/23 03:43:37;;;;;;;27.57;23.43;;;13.00;99.90;;;;;;4994668;28;21024;-62
2021/06/23 03:46:04;;;;;;;24.80;22.00;;;13.00;99.90;;;;;;5000827;28;20551;-62
2021/06/23 03:48:32;;;;;;;29.23;24.07;;;13.00;99.90;;;;;;5000263;28;20479;-61
2021/06/23 03:50:59;;;;;;;27.93;22.50;;;13.00;99.90;;;;;;5000672;28;20808;-62
2021/06/23 03:53:26;;;;;;;26.47;23.17;;;13.00;99.90;;;;;;5000264;28;20477;-62
2021/06/23 03:55:54;;;;;;;29.97;21.57;;;13.00;99.90;;;;;;5000443;28;20469;-61
2021/06/23 03:58:23;;;;;;;25.43;22.13;;;13.00;99.90;;;;;;5000169;28;20450;-61
2021/06/23 04:00:53;;;;;;;24.70;22.30;;;12.90;99.90;;;;;;5000222;28;20474;-61
2021/06/23 04:03:22;;;;;;;27.90;24.33;;;13.00;99.90;;;;;;4992853;28;20447;-62
2021/06/23 04:05:49;;;;;;;24.57;22.03;;;12.90;99.90;;;;;;4991246;28;20535;-61
2021/06/23 04:08:16;;;;;;;26.80;23.10;;;13.00;99.90;;;;;;4999252;28;20448;-61
2021/06/23 04:10:43;;;;;;;25.03;22.83;;;13.00;99.90;;;;;;5000741;28;20913;-61
2021/06/23 04:13:10;;;;;;;23.97;21.50;;;12.90;99.90;;;;;;5000164;28;20913;-62
2021/06/23 04:15:39;;;;;;;25.57;22.70;;;12.90;99.90;;;;;;4999924;28;20818;-61
2021/06/23 04:18:06;;;;;;;24.20;21.80;;;12.90;99.90;;;;;;4999894;28;20750;-61
2021/06/23 04:20:33;;;;;;;23.57;20.90;;;12.90;99.90;;;;;;5000002;28;20497;-61
2021/06/23 04:23:02;;;;;;;25.50;22.80;;;12.90;99.90;;;;;;4999134;28;20469;-61
2021/06/23 04:25:30;;;;;;;22.33;20.03;;;13.00;99.90;;;;;;4999862;28;20447;-61
2021/06/23 04:27:58;;;;;;;28.97;23.07;;;12.90;99.90;;;;;;4999747;28;20476;-61
2021/06/23 04:30:26;;;;;;;23.97;21.10;;;12.90;99.90;;;;;;4998749;28;20448;-61
2021/06/23 04:32:57;;;;;;;24.37;22.07;;;12.90;99.90;;;;;;5000016;28;20454;-61
2021/06/23 04:35:24;;;;;;;31.30;22.37;;;13.00;99.90;;;;;;4999537;28;20469;-61
2021/06/23 04:37:52;;;;;;;24.17;21.77;;;13.00;99.90;;;;;;4999338;28;20480;-61
2021/06/23 04:40:21;;;;;;;24.97;22.50;;;13.10;99.90;;;;;;4995562;28;20571;-61
2021/06/23 04:42:48;;;;;;;24.60;20.60;;;13.00;99.90;;;;;;4999682;28;20472;-61
2021/06/23 04:45:16;;;;;;;24.10;21.20;;;13.00;99.90;;;;;;4999287;28;20477;-61
2021/06/23 04:47:43;;;;;;;25.67;20.83;;;13.00;99.90;;;;;;4999402;28;20468;-61
2021/06/23 04:50:13;;;;;;;23.73;20.70;;;13.00;99.90;;;;;;4999377;28;20506;-61
2021/06/23 04:52:45;;;;;;;26.10;20.67;;;13.00;99.90;;;;;;4999583;28;20535;-61
2021/06/23 04:55:16;;;;;;;23.40;20.67;;;13.00;99.90;;;;;;4999098;28;20469;-61
2021/06/23 04:57:44;;;;;;;25.20;21.70;;;13.00;99.90;;;;;;4999707;28;20547;-61
2021/06/23 05:00:12;;;;;;;20.90;18.23;;;13.00;99.90;;;;;;4998976;28;20503;-61
2021/06/23 05:02:39;;;;;;;22.33;20.07;;;13.10;99.90;;;;;;4996515;28;20587;-61
2021/06/23 05:05:08;;;;;;;23.30;20.53;;;13.10;99.90;;;;;;4991532;28;20472;-61
2021/06/23 05:07:37;;;;;;;21.63;18.60;;;13.20;99.90;;;;;;4998942;28;20465;-61
2021/06/23 05:10:05;;;;;;;24.70;20.30;;;13.20;99.90;;;;;;4997894;28;20469;-62
2021/06/23 05:12:32;;;;;;;20.47;18.43;;;13.30;99.90;;;;;;4996562;28;20460;-61
2021/06/23 05:14:59;;;;;;;22.60;20.40;;;13.20;99.90;;;;;;4997015;28;20480;-61
2021/06/23 05:17:27;;;;;;;22.07;19.47;;;13.30;99.90;;;;;;4999270;28;20487;-61
2021/06/23 05:19:55;;;;;;;26.77;19.67;;;13.40;99.90;;;;;;4998647;28;20509;-61
2021/06/23 05:22:22;;;;;;;23.13;20.27;;;13.40;99.90;;;;;;4998424;28;20504;-61
2021/06/23 05:24:50;;;;;;;27.20;20.53;;;13.50;99.90;;;;;;4997961;28;20473;-61
2021/06/23 05:27:17;;;;;;;25.83;18.70;;;13.50;99.90;;;;;;4998359;28;20448;-61
2021/06/23 05:29:50;;;;;;;21.07;19.07;;;13.60;99.90;;;;;;4996411;28;20477;-62
2021/06/23 05:32:17;;;;;;;20.47;18.10;;;13.50;99.90;;;;;;4993378;28;20464;-61
2021/06/23 05:34:44;;;;;;;22.20;19.20;;;13.60;99.90;;;;;;4997418;28;20871;-62
2021/06/23 05:37:11;;;;;;;21.97;18.70;;;13.70;99.90;;;;;;4997068;28;20472;-61
2021/06/23 05:39:41;;;;;;;22.87;20.27;;;13.70;99.90;;;;;;4997232;28;20464;-61
2021/06/23 05:42:12;;;;;;;20.60;18.70;;;13.70;99.90;;;;;;4998421;28;20500;-61
2021/06/23 05:44:39;;;;;;;21.50;19.30;;;13.70;99.90;;;;;;4998346;28;20543;-61
2021/06/23 05:47:06;;;;;;;21.57;19.27;;;13.90;99.90;;;;;;4998232;28;20447;-61
2021/06/23 05:49:33;;;;;;;26.07;19.30;;;13.90;99.90;;;;;;4998187;28;20497;-61
2021/06/23 05:52:00;;;;;;;20.10;17.87;;;13.90;99.90;;;;;;4998065;28;20811;-61
2021/06/23 05:54:27;;;;;;;20.97;19.03;;;13.90;99.90;;;;;;4997938;28;20575;-61
2021/06/23 05:56:54;;;;;;;24.80;19.83;;;13.90;99.90;;;;;;4998025;28;20906;-61
2021/06/23 05:59:23;;;;;;;21.63;19.43;;;13.90;99.90;;;;;;4996788;28;20953;-61
2021/06/23 06:01:50;;;;;;;21.90;19.60;;;13.90;99.90;;;;;;4997885;28;20603;-61
2021/06/23 06:04:17;;;;;;;18.73;16.73;;;14.00;99.90;;;;;;4986281;28;20559;-61
2021/06/23 06:06:44;;;;;;;20.47;18.27;;;13.90;99.90;;;;;;4996451;28;20461;-61
2021/06/23 06:09:11;;;;;;;18.87;16.73;;;14.00;99.90;;;;;;4998276;28;20465;-61
2021/06/23 06:11:38;;;;;;;20.13;18.00;;;14.10;99.90;;;;;;4998126;28;20472;-60
2021/06/23 06:14:07;;;;;;;19.60;17.53;;;14.10;99.90;;;;;;4997586;28;20546;-61
2021/06/23 06:16:35;;;;;;;24.73;16.53;;;14.30;99.90;;;;;;4997446;28;20880;-61
2021/06/23 06:19:05;;;;;;;21.63;17.60;;;14.30;99.90;;;;;;4998275;28;20964;-61
2021/06/23 06:21:35;;;;;;;20.23;18.40;;;14.30;99.90;;;;;;4997530;28;20958;-60
2021/06/23 06:24:05;;;;;;;19.43;16.43;;;14.30;99.90;;;;;;4998326;28;20952;-60
2021/06/23 06:26:34;;;;;;;20.80;18.60;;;14.30;99.90;;;;;;4997942;28;20443;-60
2021/06/23 06:29:04;;;;;;;19.93;18.10;;;14.20;99.90;;;;;;4997978;28;20814;-60
2021/06/23 06:31:31;;;;;;;27.27;17.43;;;14.10;99.90;;;;;;4997278;28;20464;-60
2021/06/23 06:34:00;;;;;;;20.43;18.40;;;14.10;99.90;;;;;;4997763;28;20473;-60
2021/06/23 06:36:27;;;;;;;19.90;18.00;;;14.00;99.90;;;;;;4997573;28;20468;-60
2021/06/23 06:38:54;;;;;;;22.00;18.40;;;14.10;99.90;;;;;;4997083;28;20547;-60
2021/06/23 06:41:21;;;;;;;24.27;19.73;;;14.00;99.90;;;;;;4997772;28;20508;-60
2021/06/23 06:43:48;;;;;;;27.20;20.07;;;14.00;99.90;;;;;;4998229;28;20911;-59
2021/06/23 06:46:15;;;;;;;22.77;20.60;;;14.10;99.90;;;;;;4997702;28;20476;-58
2021/06/23 06:48:42;;;;;;;25.97;19.17;;;14.10;99.90;;;;;;4998141;28;20451;-56
2021/06/23 06:51:11;;;;;;;22.20;18.63;;;14.10;99.90;;;;;;4997547;28;20930;-57
2021/06/23 06:53:38;;;;;;;20.77;18.70;;;14.10;99.90;;;;;;4997411;28;20444;-59
2021/06/23 06:56:07;;;;;;;25.27;18.57;;;14.10;99.90;;;;;;4998100;28;20560;-59
2021/06/23 06:58:34;;;;;;;24.37;18.80;;;14.10;99.90;;;;;;4992194;28;20495;-59
2021/06/23 07:01:04;;;;;;;25.47;20.93;;;14.10;99.90;;;;;;4992288;28;20480;-59
2021/06/23 07:43:20;;;;;;;19.80;17.73;;;14.80;99.90;;;;;;5000558;28;20564;-55
2021/06/23 07:45:51;;;;;;;24.93;19.17;;;14.80;99.90;;;;;;4999909;28;20472;-56
2021/06/23 07:48:21;;;;;;;26.60;20.50;;;14.90;99.90;;;;;;5000450;28;20506;-57
2021/06/23 07:50:51;;;;;;;21.67;19.20;;;15.20;99.90;;;;;;5000480;28;20451;-54
2021/06/23 07:53:24;;;;;;;19.00;17.20;;;15.20;99.90;;;;;;5000425;28;20470;-58
2021/06/23 07:55:56;;;;;;;20.83;18.67;;;15.40;99.90;;;;;;5000059;28;20472;-57
2021/06/23 08:01:54;;;;;;;19.70;17.73;;;15.50;99.90;;;;;;4985726;28;20467;-56
2021/06/23 08:09:53;;;;;;;21.37;19.00;;;15.40;99.90;;;;;;4980836;28;20596;-57
2021/06/23 08:12:26;;;;;;;22.33;19.97;;;15.40;99.90;;;;;;4980833;28;20525;-59
2021/06/23 08:14:53;;;;;;;20.80;18.67;;;15.50;99.90;;;;;;4981606;28;20576;-58
2021/06/23 08:17:26;;;;;;;23.20;20.27;;;15.60;99.90;;;;;;4980379;28;20473;-58
2021/06/23 08:19:55;;;;;;;25.00;19.93;;;15.60;99.90;;;;;;4980619;28;20476;-58
2021/06/23 08:22:23;;;;;;;21.57;18.70;;;15.80;99.90;;;;;;4980216;28;20493;-56
2021/06/23 08:24:50;;;;;;;24.73;20.90;;;15.50;99.90;;;;;;4981503;28;20491;-59
2021/06/23 08:27:17;;;;;;;21.30;19.37;;;15.90;99.90;;;;;;4980629;28;20560;-55
2021/06/23 08:29:45;;;;;;;20.90;18.90;;;16.20;99.90;;;;;;4982644;28;20902;-59
2021/06/23 08:32:12;;;;;;;20.50;18.57;;;16.40;99.90;;;;;;4978716;28;20478;-59
2021/06/23 08:34:39;;;;;;;20.47;18.43;;;16.70;99.90;;;;;;4983407;28;20866;-58
2021/06/23 08:37:06;;;;;;;19.50;17.50;;;17.00;99.90;;;;;;4983346;28;20464;-56
2021/06/23 08:39:33;;;;;;;18.73;16.93;;;17.10;99.90;;;;;;4999166;28;20483;-54
2021/06/23 08:42:00;;;;;;;21.30;17.60;;;16.90;99.90;;;;;;4994987;28;20509;-55
2021/06/23 08:44:27;;;;;;;18.73;16.77;;;17.00;99.90;;;;;;4998900;28;20472;-56
2021/06/23 08:47:00;;;;;;;18.80;16.60;;;17.20;99.90;;;;;;4999379;28;20454;-58
2021/06/23 08:49:27;;;;;;;18.00;16.20;;;17.50;99.90;;;;;;4997596;28;20465;-59
2021/06/23 08:51:56;;;;;;;19.73;17.63;;;17.50;99.90;;;;;;4999022;28;20880;-58
2021/06/23 08:54:23;;;;;;;19.63;17.73;;;17.60;99.90;;;;;;4999021;28;20886;-59
2021/06/23 08:56:51;;;;;;;19.77;16.97;;;17.80;99.90;;;;;;4999258;28;20469;-58
2021/06/23 08:59:18;;;;;;;19.87;17.77;;;18.00;99.90;;;;;;4989160;28;20488;-59
2021/06/23 09:01:46;;;;;;;22.70;17.07;;;18.20;99.90;;;;;;4996440;28;20533;-59
2021/06/23 09:04:15;;;;;;;18.80;17.10;;;18.10;99.90;;;;;;4977157;28;20474;-55
2021/06/23 09:06:50;;;;;;;17.87;15.97;;;18.00;99.90;;;;;;4984454;28;20501;-55
2021/06/23 09:09:23;;;;;;;20.70;16.40;;;18.10;99.90;;;;;;4984594;28;20810;-53
2021/06/23 09:11:54;;;;;;;17.63;16.10;;;17.80;99.90;;;;;;4998892;28;20469;-55
2021/06/23 09:14:23;;;;;;;19.40;17.40;;;17.90;99.90;;;;;;4982631;28;20472;-55
2021/06/23 09:17:05;;;;;;;20.03;16.50;;;18.10;99.90;;;;;;4973898;28;20542;-52
2021/06/23 09:19:35;;;;;;;21.77;19.47;;;18.10;99.90;;;;;;4979601;28;20544;-58
2021/06/23 09:22:23;;;;;;;20.60;18.40;;;18.30;99.90;;;;;;4981680;28;20493;-55
2021/06/23 09:24:56;;;;;;;18.50;16.77;;;18.80;99.90;;;;;;4997619;28;20469;-55
2021/06/23 09:27:26;;;;;;;18.20;16.50;;;19.30;99.90;;;;;;4994228;28;20474;-54
2021/06/23 09:29:53;;;;;;;17.97;16.27;;;18.80;99.90;;;;;;4979476;28;20478;-54
2021/06/23 09:32:21;;;;;;;17.67;14.60;;;18.70;99.90;;;;;;4980036;28;20501;-57
2021/06/23 09:34:53;;;;;;;18.13;16.37;;;19.10;99.90;;;;;;4979605;28;20460;-56
2021/06/23 09:37:29;;;;;;;18.23;16.50;;;18.90;99.90;;;;;;4979509;28;20505;-55
2021/06/23 09:40:13;;;;;;;17.40;15.50;;;18.90;99.90;;;;;;4990285;28;20916;-51
2021/06/23 09:42:41;;;;;;;20.03;16.77;;;19.10;99.90;;;;;;4996718;28;20500;-55
2021/06/23 09:45:10;;;;;;;17.47;15.93;;;19.00;99.90;;;;;;4997809;28;20789;-52
2021/06/23 09:47:38;;;;;;;23.17;16.27;;;18.70;99.90;;;;;;4998401;28;20472;-48
2021/06/23 09:50:07;;;;;;;19.70;17.37;;;19.00;99.90;;;;;;4989836;28;20451;-52
2021/06/23 09:52:36;;;;;;;18.87;17.00;;;18.70;99.90;;;;;;4980806;28;20463;-51
2021/06/23 09:55:04;;;;;;;21.10;17.23;;;18.50;99.90;;;;;;4998220;28;20468;-53
2021/06/23 09:57:31;;;;;;;22.20;16.47;;;18.50;99.90;;;;;;4989325;28;20563;-47
2021/06/23 10:00:08;;;;;;;18.20;16.10;;;18.40;99.90;;;;;;4978857;28;20469;-46
2021/06/23 10:02:36;;;;;;;18.13;16.17;;;18.50;99.90;;;;;;4977685;28;20498;-54
2021/06/23 10:05:23;;;;;;;21.33;17.10;;;18.50;99.90;;;;;;4980258;28;20534;-49
2021/06/23 10:07:53;;;;;;;16.73;15.20;;;18.40;99.90;;;;;;4990028;28;20467;-48
2021/06/23 10:10:21;;;;;;;17.20;15.60;;;18.40;99.90;;;;;;4995048;28;20567;-50
2021/06/23 10:12:52;;;;;;;17.80;15.97;;;18.50;99.90;;;;;;4997970;28;20460;-51
2021/06/23 10:15:19;;;;;;;17.73;15.80;;;18.40;99.90;;;;;;4997153;28;20473;-47
2021/06/23 10:17:47;;;;;;;18.07;16.10;;;18.70;99.90;;;;;;4997626;28;20538;-46
2021/06/23 10:20:16;;;;;;;17.87;15.40;;;19.10;99.90;;;;;;4997615;28;20902;-52
2021/06/23 10:22:45;;;;;;;18.10;16.17;;;19.30;99.90;;;;;;4997764;28;20496;-46
2021/06/23 10:25:16;;;;;;;19.70;14.90;;;19.60;99.90;;;;;;4997621;28;21086;-47
2021/06/23 10:27:49;;;;;;;16.70;15.23;;;19.90;99.90;;;;;;4997393;28;20904;-47
2021/06/23 10:30:17;;;;;;;17.00;15.50;;;19.90;99.90;;;;;;4996816;28;20464;-47
2021/06/23 10:32:45;;;;;;;17.50;14.23;;;20.10;99.90;;;;;;4997724;28;20472;-49
2021/06/23 10:35:15;;;;;;;17.30;13.80;;;20.10;99.90;;;;;;4997813;28;20765;-55
2021/06/23 10:37:46;;;;;;;20.20;13.93;;;19.90;99.90;;;;;;4997280;28;20475;-53
2021/06/23 10:40:17;;;;;;;15.03;13.43;;;19.90;99.90;;;;;;4997025;28;20482;-53
2021/06/23 10:42:44;;;;;;;15.53;14.03;;;20.30;99.90;;;;;;4972293;28;20502;-52
2021/06/23 10:45:13;;;;;;;14.40;13.20;;;20.40;99.90;;;;;;4978647;28;20873;-51
2021/06/23 10:47:42;;;;;;;18.67;16.53;;;20.30;99.90;;;;;;4972629;28;20448;-53
2021/06/23 10:50:10;;;;;;;16.80;15.20;;;20.70;99.90;;;;;;4978991;28;20528;-56
2021/06/23 10:52:44;;;;;;;15.30;13.80;;;20.60;99.90;;;;;;4978306;28;20564;-46
2021/06/23 10:55:46;;;;;;;15.23;13.73;;;20.60;99.90;;;;;;4978735;28;20506;-49
2021/06/23 10:58:13;;;;;;;15.57;13.93;;;20.30;99.90;;;;;;4978875;28;20496;-51
2021/06/23 11:00:48;;;;;;;16.63;14.40;;;19.80;99.90;;;;;;4977738;28;20466;-50
2021/06/23 11:03:17;;;;;;;17.33;14.70;;;19.90;99.90;;;;;;4965977;28;20500;-50
2021/06/23 12:17:17;;;;;;;14.90;13.53;;;22.90;91.40;;;;;;5027832;23;20488;-51
2021/06/23 12:19:47;;;;;;;14.53;13.20;;;22.40;90.20;;;;;;4980443;28;20472;-56
2021/06/23 12:22:14;;;;;;;16.77;14.90;;;22.20;91.80;;;;;;4979887;28;20532;-56
2021/06/23 12:24:41;;;;;;;15.13;13.80;;;22.30;92.40;;;;;;4980456;28;20945;-49
2021/06/23 12:27:08;;;;;;;13.43;12.23;;;22.60;91.70;;;;;;4967831;28;20475;-52
2021/06/23 12:29:37;;;;;;;16.93;15.17;;;22.70;91.70;;;;;;4961399;28;20545;-57
2021/06/23 12:32:05;;;;;;;15.23;13.77;;;23.20;91.70;;;;;;4961913;28;20638;-56
2021/06/23 12:34:34;;;;;;;18.03;14.00;;;23.70;90.80;;;;;;4961597;28;20474;-50
2021/06/23 12:37:01;;;;;;;15.03;13.57;;;23.80;90.50;;;;;;4961661;28;20895;-48
2021/06/23 12:39:28;;;;;;;15.30;13.80;;;23.60;88.90;;;;;;4961119;28;20470;-50
2021/06/23 12:41:55;;;;;;;18.00;13.13;;;23.10;90.30;;;;;;4961535;28;20474;-50
2021/06/23 12:44:22;;;;;;;15.37;14.07;;;23.10;91.70;;;;;;4961388;28;20484;-51
2021/06/23 12:46:49;;;;;;;14.43;13.33;;;23.20;91.20;;;;;;4960818;28;20493;-50
2021/06/23 12:49:16;;;;;;;15.67;14.13;;;23.10;91.10;;;;;;4961173;28;20450;-52
2021/06/23 12:51:45;;;;;;;14.83;13.33;;;22.50;90.80;;;;;;4961462;28;20537;-48
2021/06/23 12:54:12;;;;;;;15.10;13.60;;;22.20;91.20;;;;;;4960984;28;20923;-53
2021/06/23 12:56:39;;;;;;;16.87;15.37;;;22.40;92.50;;;;;;4961179;28;20963;-49
2021/06/23 12:59:12;;;;;;;16.30;14.60;;;22.60;91.60;;;;;;4961095;28;20474;-48
2021/06/23 13:01:39;;;;;;;17.17;15.67;;;22.50;91.60;;;;;;4961109;28;20900;-50
2021/06/23 13:04:07;;;;;;;17.40;15.63;;;22.10;92.20;;;;;;4952828;28;20477;-55
2021/06/23 13:06:34;;;;;;;16.10;14.70;;;21.70;92.50;;;;;;4966901;28;20474;-57
2021/06/23 13:09:05;;;;;;;17.87;16.33;;;21.70;94.60;;;;;;4976284;28;20466;-56
2021/06/23 13:21:39;;;;;;;17.67;15.97;;;22.00;93.90;;;;;;4951729;28;20470;-54
2021/06/23 13:24:10;;;;;;;19.40;17.80;;;22.00;93.30;;;;;;4960781;28;20510;-53
2021/06/23 13:26:38;;;;;;;18.17;16.67;;;21.70;93.20;;;;;;4960554;28;20479;-48
2021/06/23 13:29:05;;;;;;;18.47;16.53;;;21.70;94.60;;;;;;4960522;28;20478;-56
2021/06/23 13:31:34;;;;;;;18.37;16.53;;;21.80;93.90;;;;;;4960428;28;20475;-49
2021/06/23 14:10:56;;;;;;;19.23;17.40;;;22.50;91.70;;;;;;5425384;23;20447;-46
2021/06/23 14:13:26;;;;;;;18.93;17.13;;;22.80;93.30;;;;;;4978510;28;20445;-46
2021/06/23 14:15:53;;;;;;;20.30;18.50;;;22.70;91.00;;;;;;4978492;28;20778;-52
2021/06/23 14:18:20;;;;;;;19.00;17.20;;;22.30;92.00;;;;;;4978895;28;20882;-56
2021/06/23 14:20:47;;;;;;;19.83;17.80;;;22.50;93.20;;;;;;4979291;28;20477;-49
2021/06/23 14:23:16;;;;;;;18.33;16.63;;;23.00;92.10;;;;;;4978060;28;20509;-50
2021/06/23 14:25:43;;;;;;;15.63;14.23;;;23.50;91.20;;;;;;4978571;28;20444;-49
2021/06/23 14:28:15;;;;;;;18.80;16.40;;;24.20;91.50;;;;;;4978389;28;20474;-52
2021/06/23 14:30:45;;;;;;;18.40;17.00;;;23.60;87.90;;;;;;4978026;28;20912;-50
2021/06/23 14:33:15;;;;;;;16.97;15.27;;;23.10;88.80;;;;;;4977325;28;20914;-50
2021/06/23 14:35:42;;;;;;;15.30;14.10;;;23.20;91.00;;;;;;4976751;28;20466;-51
2021/06/23 14:38:09;;;;;;;18.10;16.37;;;23.70;90.80;;;;;;4976033;28;20917;-53
2021/06/23 14:40:36;;;;;;;18.50;16.57;;;24.10;87.90;;;;;;4977346;28;20480;-54
2021/06/23 14:43:04;;;;;;;18.20;16.73;;;24.30;85.70;;;;;;4976683;28;20496;-52
2021/06/23 14:45:32;;;;;;;18.03;16.23;;;24.10;87.70;;;;;;4976442;28;20477;-52
2021/06/23 14:47:59;;;;;;;17.03;15.50;;;24.10;86.10;;;;;;4977636;28;20477;-49
2021/06/23 15:23:34;;;;;;;21.00;19.00;;;21.50;92.90;;;;;;5458779;23;20526;-55
2021/06/23 15:26:01;;;;;;;20.63;16.80;;;21.30;93.70;;;;;;4997761;28;20750;-49
2021/06/23 15:28:28;;;;;;;19.60;17.87;;;21.30;94.50;;;;;;5000096;28;20472;-51
2021/06/23 15:30:56;;;;;;;19.10;17.27;;;21.40;94.90;;;;;;5000370;28;20471;-47
2021/06/23 15:33:23;;;;;;;18.13;16.23;;;21.40;95.10;;;;;;5000206;28;20461;-49
2021/06/23 15:35:53;;;;;;;19.73;17.70;;;21.40;95.60;;;;;;5000631;28;20469;-52
2021/06/23 15:38:23;;;;;;;19.10;17.23;;;21.10;95.20;;;;;;5000593;28;20464;-51
2021/06/23 15:40:54;;;;;;;19.37;17.37;;;20.70;96.30;;;;;;5000692;28;20885;-55
2021/06/23 15:43:22;;;;;;;19.40;17.47;;;21.10;97.80;;;;;;4999550;28;20492;-52
2021/06/23 15:45:52;;;;;;;17.50;15.80;;;21.30;96.80;;;;;;4996753;28;20796;-55
2021/06/23 15:48:19;;;;;;;17.50;15.97;;;21.60;96.10;;;;;;4997417;28;20465;-55
2021/06/23 15:50:48;;;;;;;17.93;15.67;;;21.70;94.90;;;;;;4999693;28;20919;-52
2021/06/23 15:53:15;;;;;;;18.60;16.77;;;21.90;95.40;;;;;;4999502;28;20464;-56
2021/06/23 15:55:42;;;;;;;16.70;15.10;;;21.90;94.40;;;;;;4999953;28;20472;-50
2021/06/23 15:58:21;;;;;;;16.70;15.20;;;22.00;94.40;;;;;;5005164;28;20473;-51